createdAt,value
2019-04-26T00:01:41.287Z,95944.34
2019-04-26T00:04:14.299Z,95939.63
2019-04-26T00:06:44.505Z,95934.30
2019-04-26T00:09:29.879Z,95936.81
2019-04-26T00:12:18.353Z,95939.37
2019-04-26T00:15:06.816Z,95949.70
2019-04-26T00:17:44.163Z,95935.87
2019-04-26T00:20:13.210Z,95915.39
2019-04-26T00:22:43.567Z,95906.16
2019-04-26T00:25:16.541Z,95609.34
2019-04-26T00:27:45.871Z,95923.50
2019-04-26T00:30:17.714Z,95934.58
2019-04-26T00:32:49.843Z,95934.05
2019-04-26T00:35:24.052Z,95941.42
2019-04-26T00:37:53.122Z,95946.22
2019-04-26T00:40:26.665Z,95961.92
2019-04-26T00:43:02.258Z,95980.69
2019-04-26T00:45:32.860Z,96006.33
2019-04-26T00:48:07.456Z,95996.11
2019-04-26T00:50:41.933Z,95997.66
2019-04-26T00:53:13.294Z,96031.88
2019-04-26T00:55:46.010Z,95999.16
2019-04-26T00:58:18.667Z,95993.66
2019-04-26T01:00:49.030Z,95996.19
2019-04-26T01:03:20.657Z,95990.41
2019-04-26T01:05:59.893Z,95984.98
2019-04-26T01:08:25.534Z,95978.23
2019-04-26T01:10:56.286Z,95993.02
2019-04-26T01:13:27.113Z,95993.61
2019-04-26T01:15:56.533Z,95997.56
2019-04-26T01:18:31.777Z,95997.95
2019-04-26T01:21:02.187Z,95991.72
2019-04-26T01:23:32.735Z,95998.00
2019-04-26T01:26:23.252Z,96000.78
2019-04-26T01:28:59.527Z,95986.05
2019-04-26T01:31:33.552Z,95987.73
2019-04-26T01:34:02.630Z,95985.91
2019-04-26T01:36:36.102Z,95981.59
2019-04-26T01:39:17.157Z,95986.13
2019-04-26T01:41:51.189Z,96004.06
2019-04-26T01:44:40.414Z,96006.80
2019-04-26T01:47:12.149Z,96003.27
2019-04-26T01:49:45.563Z,95986.15
2019-04-26T01:52:18.030Z,95978.97
2019-04-26T01:54:47.564Z,95977.74
2019-04-26T01:57:18.718Z,95976.58
2019-04-26T01:59:52.366Z,95985.02
2019-04-26T02:02:42.049Z,95994.20
2019-04-26T02:05:23.938Z,96003.65
2019-04-26T02:07:54.072Z,96001.09
2019-04-26T02:10:25.256Z,95991.98
2019-04-26T02:12:55.614Z,95998.22
2019-04-26T02:15:29.340Z,96009.20
2019-04-26T02:18:02.895Z,96020.05
2019-04-26T02:21:01.361Z,96018.64
2019-04-26T02:23:39.285Z,96011.17
2019-04-26T02:26:28.341Z,96010.59
2019-04-26T02:29:01.958Z,96011.86
2019-04-26T02:31:33.746Z,95986.34
2019-04-26T02:34:05.414Z,95973.44
2019-04-26T02:36:54.396Z,95978.19
2019-04-26T02:39:18.494Z,95968.45
2019-04-26T02:41:49.982Z,95984.44
2019-04-26T02:44:22.078Z,95999.81
2019-04-26T02:47:18.929Z,96002.72
2019-04-26T02:49:51.546Z,95996.67
2019-04-26T02:52:41.878Z,95997.25
2019-04-26T02:55:27.887Z,96004.08
2019-04-26T02:58:00.156Z,95998.59
2019-04-26T03:00:30.201Z,96002.48
2019-04-26T03:03:05.859Z,95995.37
2019-04-26T03:05:39.604Z,95991.63
2019-04-26T03:08:12.197Z,95994.13
2019-04-26T03:10:49.224Z,95995.58
2019-04-26T03:13:40.760Z,95989.31
2019-04-26T03:16:23.763Z,95984.05
2019-04-26T03:19:05.437Z,95989.48
2019-04-26T03:22:22.393Z,96000.59
2019-04-26T03:25:08.291Z,95998.75
2019-04-26T03:27:57.386Z,95989.82
2019-04-26T03:30:53.898Z,95989.60
2019-04-26T03:33:52.254Z,95994.52
2019-04-26T03:36:41.168Z,96000.48
2019-04-26T03:39:34.665Z,96000.41
2019-04-26T03:42:28.394Z,96008.34
2019-04-26T03:45:14.509Z,96002.36
2019-04-26T03:47:51.234Z,96011.19
2019-04-26T03:50:35.286Z,96012.70
2019-04-26T03:53:40.480Z,96013.92
2019-04-26T03:56:45.524Z,96016.97
2019-04-26T03:59:37.997Z,96016.88
2019-04-26T04:02:38.749Z,96003.38
2019-04-26T04:05:37.892Z,95991.61
2019-04-26T04:08:12.263Z,96002.87
2019-04-26T04:10:48.874Z,95993.41
2019-04-26T04:13:54.272Z,95998.91
2019-04-26T04:17:29.065Z,96001.69
2019-04-26T04:21:28.244Z,96011.59
2019-04-26T04:24:13.192Z,96021.94
2019-04-26T04:27:02.958Z,96024.49
2019-04-26T04:30:02.379Z,96028.17
2019-04-26T04:32:52.181Z,96044.05
2019-04-26T04:35:31.940Z,96042.42
2019-04-26T04:38:11.261Z,96047.13
2019-04-26T04:41:29.689Z,96051.84
2019-04-26T04:44:12.211Z,96062.64
2019-04-26T04:47:25.533Z,96065.32
2019-04-26T04:50:06.934Z,96068.02
2019-04-26T04:53:09.135Z,96073.63
2019-04-26T04:56:01.443Z,96080.73
2019-04-26T04:58:36.867Z,96070.08
2019-04-26T05:01:59.767Z,96084.23
2019-04-26T05:04:41.428Z,96092.19
2019-04-26T05:07:30.142Z,96103.27
2019-04-26T05:10:16.176Z,96122.55
2019-04-26T05:13:08.340Z,96096.39
2019-04-26T05:16:13.567Z,96104.16
2019-04-26T05:19:28.230Z,96105.42
2019-04-26T05:22:33.926Z,96112.78
2019-04-26T05:26:17.252Z,96120.01
2019-04-26T05:29:15.765Z,96064.72
2019-04-26T05:32:05.709Z,96136.08
2019-04-26T05:34:47.948Z,96129.77
2019-04-26T05:38:18.061Z,96137.70
2019-04-26T05:40:57.722Z,96172.34
2019-04-26T05:44:12.551Z,96157.52
2019-04-26T05:47:22.280Z,96161.77
2019-04-26T05:50:50.890Z,96163.88
2019-04-26T05:54:30.859Z,96163.87
2019-04-26T05:57:12.554Z,96188.21
2019-04-26T06:00:42.187Z,96190.04
2019-04-26T06:04:24.209Z,96182.77
2019-04-26T06:07:40.708Z,96198.72
2019-04-26T06:10:34.312Z,96186.19
2019-04-26T06:13:49.973Z,96182.71
2019-04-26T06:17:02.832Z,96185.64
2019-04-26T06:19:57.651Z,96189.58
2019-04-26T06:22:34.218Z,96196.52
2019-04-26T06:25:34.232Z,96194.12
2019-04-26T06:28:38.950Z,96199.46
2019-04-26T06:31:15.814Z,96201.23
2019-04-26T06:34:08.231Z,96209.24
2019-04-26T06:37:02.840Z,96212.75
2019-04-26T06:40:12.020Z,96226.14
2019-04-26T06:43:05.176Z,96225.34
2019-04-26T06:46:30.528Z,96228.11
2019-04-26T06:49:28.784Z,96224.16
2019-04-26T06:52:08.530Z,96228.63
2019-04-26T06:55:04.240Z,96231.27
2019-04-26T06:58:10.306Z,96232.31
2019-04-26T07:01:03.297Z,96247.20
2019-04-26T07:03:45.317Z,96248.45
2019-04-26T07:06:18.590Z,96274.91
2019-04-26T07:09:03.634Z,96245.52
2019-04-26T07:12:36.239Z,96240.53
2019-04-26T07:15:48.035Z,96244.77
2019-04-26T07:18:43.491Z,96242.37
2019-04-26T07:21:38.793Z,95823.36
2019-04-26T07:24:49.138Z,96250.53
2019-04-26T07:28:06.373Z,96264.77
2019-04-26T07:30:57.073Z,95117.75
2019-04-26T07:34:15.031Z,96275.95
2019-04-26T07:37:20.869Z,96266.52
2019-04-26T07:40:44.244Z,96281.05
2019-04-26T07:43:43.607Z,96274.69
2019-04-26T07:46:31.860Z,96277.59
2019-04-26T07:49:48.195Z,96278.70
2019-04-26T07:52:55.222Z,96278.94
2019-04-26T07:56:11.478Z,96299.61
2019-04-26T07:59:34.535Z,96308.05
2019-04-26T08:02:40.337Z,96300.92
2019-04-26T08:05:28.332Z,96305.38
2019-04-26T08:08:05.873Z,96296.67
2019-04-26T08:10:38.870Z,96303.53
2019-04-26T08:13:11.529Z,96313.77
2019-04-26T08:16:06.747Z,96319.00
2019-04-26T08:18:48.269Z,96323.86
2019-04-26T08:21:26.362Z,96322.05
2019-04-26T08:24:05.199Z,96319.45
2019-04-26T08:26:39.399Z,96310.19
2019-04-26T08:29:10.554Z,96311.47
2019-04-26T08:31:43.311Z,96321.05
2019-04-26T08:34:20.667Z,96315.75
2019-04-26T08:37:17.857Z,96320.51
2019-04-26T08:39:52.233Z,96321.54
2019-04-26T08:42:26.180Z,96337.98
2019-04-26T08:45:10.146Z,96339.42
2019-04-26T08:48:01.622Z,96337.13
2019-04-26T08:50:46.206Z,96333.89
2019-04-26T08:53:41.546Z,96331.73
2019-04-26T08:56:15.321Z,96338.14
2019-04-26T08:58:48.539Z,96338.17
2019-04-26T09:01:36.603Z,96344.51
2019-04-26T09:04:17.196Z,96076.84
2019-04-26T09:07:06.353Z,96364.17
2019-04-26T09:09:39.719Z,96357.74
2019-04-26T09:12:23.005Z,96361.73
2019-04-26T09:14:52.566Z,96370.97
2019-04-26T09:17:27.735Z,96380.00
2019-04-26T09:20:07.888Z,96388.61
2019-04-26T09:22:56.071Z,96388.38
2019-04-26T09:25:42.100Z,96394.02
2019-04-26T09:28:21.298Z,96388.95
2019-04-26T09:31:19.654Z,96375.84
2019-04-26T09:33:49.797Z,96383.34
2019-04-26T09:36:22.628Z,96377.86
2019-04-26T09:38:53.086Z,96375.58
2019-04-26T09:41:26.598Z,96375.32
2019-04-26T09:44:12.355Z,96376.62
2019-04-26T09:47:02.391Z,96374.25
2019-04-26T09:49:42.217Z,96381.08
2019-04-26T09:52:24.180Z,96387.20
2019-04-26T09:54:53.346Z,96380.86
2019-04-26T09:57:22.410Z,96385.62
2019-04-26T09:59:52.050Z,96383.80
2019-04-26T10:02:22.858Z,96386.18
2019-04-26T10:04:52.185Z,96391.72
2019-04-26T10:07:21.278Z,96391.72
2019-04-26T10:09:51.737Z,96385.63
2019-04-26T10:12:28.351Z,96386.70
2019-04-26T10:15:08.607Z,96380.84
2019-04-26T10:17:40.783Z,95103.67
2019-04-26T10:20:11.853Z,96383.17
2019-04-26T10:22:42.023Z,96398.88
2019-04-26T10:25:16.524Z,96390.35
2019-04-26T10:27:44.202Z,96385.11
2019-04-26T10:30:17.931Z,96387.75
2019-04-26T10:32:47.414Z,96387.11
2019-04-26T10:35:28.192Z,96388.70
2019-04-26T10:37:58.084Z,96393.32
2019-04-26T10:40:35.636Z,96386.36
2019-04-26T10:43:04.838Z,96390.65
2019-04-26T10:45:38.656Z,96391.17
2019-04-26T10:48:14.029Z,96398.31
2019-04-26T10:50:43.684Z,96394.65
2019-04-26T10:53:32.015Z,96387.75
2019-04-26T10:56:29.036Z,96388.84
2019-04-26T10:59:22.658Z,96387.52
2019-04-26T11:01:53.576Z,96396.47
2019-04-26T11:04:28.799Z,96397.79
2019-04-26T11:06:58.041Z,96404.23
2019-04-26T11:09:28.765Z,96403.00
2019-04-26T11:11:58.052Z,96415.20
2019-04-26T11:14:27.135Z,96422.67
2019-04-26T11:16:59.574Z,96430.92
2019-04-26T11:19:31.942Z,96432.52
2019-04-26T11:22:01.607Z,96428.78
2019-04-26T11:24:36.728Z,96427.48
2019-04-26T11:27:10.012Z,96419.53
2019-04-26T11:29:53.818Z,96406.30
2019-04-26T11:32:19.270Z,96395.91
2019-04-26T11:34:48.935Z,96392.52
2019-04-26T11:37:19.868Z,96395.16
2019-04-26T11:39:50.120Z,96406.81
2019-04-26T11:42:19.556Z,96408.67
2019-04-26T11:44:49.366Z,96417.16
2019-04-26T11:47:22.646Z,96409.73
2019-04-26T11:49:52.248Z,96408.95
2019-04-26T11:52:27.029Z,96409.38
2019-04-26T11:54:57.798Z,96416.59
2019-04-26T11:57:26.837Z,96427.20
2019-04-26T11:59:55.898Z,96422.92
2019-04-26T12:02:25.253Z,96433.83
2019-04-26T12:05:15.081Z,96434.11
2019-04-26T12:08:08.752Z,96433.05
2019-04-26T12:10:48.552Z,96415.84
2019-04-26T12:13:21.288Z,96424.06
2019-04-26T12:15:50.897Z,96418.95
2019-04-26T12:18:24.553Z,96421.13
2019-04-26T12:21:01.045Z,96416.63
2019-04-26T12:23:27.821Z,96430.92
2019-04-26T12:26:00.149Z,96430.34
2019-04-26T12:28:36.312Z,96436.22
2019-04-26T12:31:15.513Z,96435.66
2019-04-26T12:33:51.515Z,96434.87
2019-04-26T12:36:20.851Z,96430.41
2019-04-26T12:39:08.353Z,96427.14
2019-04-26T12:41:43.123Z,96435.13
2019-04-26T12:44:17.632Z,96432.63
2019-04-26T12:47:04.900Z,96447.90
2019-04-26T12:49:40.539Z,96451.05
2019-04-26T12:52:12.006Z,96451.05
2019-04-26T12:54:44.570Z,96461.92
2019-04-26T12:57:18.904Z,96467.77
2019-04-26T12:59:51.493Z,96470.66
2019-04-26T13:02:30.943Z,96464.29
2019-04-26T13:05:04.803Z,96466.70
2019-04-26T13:07:38.952Z,96474.28
2019-04-26T13:10:31.311Z,96474.82
2019-04-26T13:13:18.075Z,96472.09
2019-04-26T13:16:15.906Z,96476.19
2019-04-26T13:18:49.220Z,96481.52
2019-04-26T13:21:22.513Z,96488.31
2019-04-26T13:23:55.638Z,96486.79
2019-04-26T13:26:36.394Z,96489.69
2019-04-26T13:29:06.444Z,96487.37
2019-04-26T13:31:35.990Z,96500.00
2019-04-26T13:34:07.565Z,96497.14
2019-04-26T13:36:39.775Z,96486.53
2019-04-26T13:39:17.916Z,96487.89
2019-04-26T13:41:46.736Z,96489.74
2019-04-26T13:44:18.515Z,96489.48
2019-04-26T13:47:24.888Z,96491.30
2019-04-26T13:50:02.669Z,96492.64
2019-04-26T13:52:41.059Z,96499.55
2019-04-26T13:55:10.191Z,96492.14
2019-04-26T13:57:44.527Z,96502.70
2019-04-26T14:00:15.352Z,96507.48
2019-04-26T14:02:46.550Z,96508.84
2019-04-26T14:05:20.079Z,96516.77
2019-04-26T14:07:57.364Z,96513.34
2019-04-26T14:10:30.861Z,96517.05
2019-04-26T14:13:01.567Z,96511.74
2019-04-26T14:15:39.431Z,96511.45
2019-04-26T14:18:09.650Z,96512.79
2019-04-26T14:20:42.101Z,96511.72
2019-04-26T14:23:37.402Z,96504.44
2019-04-26T14:26:16.819Z,96497.33
2019-04-26T14:28:45.936Z,96493.67
2019-04-26T14:31:18.141Z,96488.00
2019-04-26T14:33:51.852Z,96485.70
2019-04-26T14:36:22.647Z,96481.66
2019-04-26T14:39:05.033Z,96485.59
2019-04-26T14:41:23.777Z,96485.72
2019-04-26T14:43:58.506Z,96489.75
2019-04-26T14:46:28.923Z,96477.52
2019-04-26T14:49:01.996Z,96470.32
2019-04-26T14:51:34.473Z,96476.70
2019-04-26T14:54:07.377Z,96475.97
2019-04-26T14:56:34.811Z,96484.05
2019-04-26T14:59:08.046Z,96485.70
2019-04-26T15:02:10.370Z,96482.30
2019-04-26T15:04:48.100Z,96465.71
2019-04-26T15:07:18.247Z,96457.87
2019-04-26T15:09:48.913Z,96454.09
2019-04-26T15:12:17.960Z,96456.32
2019-04-26T15:14:49.383Z,96452.86
2019-04-26T15:17:24.849Z,96467.13
2019-04-26T15:19:54.146Z,96464.42
2019-04-26T15:22:24.447Z,96469.09
2019-04-26T15:24:53.597Z,96558.17
2019-04-26T15:27:25.291Z,96478.82
2019-04-26T15:30:01.141Z,96479.06
2019-04-26T15:34:58.777Z,96477.97
2019-04-26T15:37:32.232Z,96478.10
2019-04-26T15:40:12.792Z,96477.13
2019-04-26T15:43:14.247Z,96481.22
2019-04-26T15:45:49.308Z,96477.98
2019-04-26T15:48:39.728Z,96480.75
2019-04-26T15:51:09.002Z,96487.68
2019-04-26T15:53:44.885Z,96502.23
2019-04-26T15:56:16.209Z,96489.41
2019-04-26T15:58:48.984Z,96487.37
2019-04-26T16:01:16.422Z,96482.38
2019-04-26T16:03:45.456Z,96479.66
2019-04-26T16:06:14.545Z,96479.94
2019-04-26T16:08:44.016Z,96484.22
2019-04-26T16:11:13.344Z,96490.38
2019-04-26T16:13:45.100Z,96493.89
2019-04-26T16:16:16.496Z,96489.11
2019-04-26T16:18:50.018Z,96489.25
2019-04-26T16:21:17.882Z,96487.67
2019-04-26T16:23:52.024Z,96513.38
2019-04-26T16:26:22.889Z,96494.67
2019-04-26T16:29:18.190Z,96502.91
2019-04-26T16:32:05.446Z,96509.63
2019-04-26T16:34:41.712Z,96504.33
2019-04-26T16:37:09.895Z,96516.09
2019-04-26T16:39:40.200Z,96515.57
2019-04-26T16:42:10.087Z,96507.82
2019-04-26T16:44:45.750Z,96326.84
2019-04-26T16:47:14.806Z,96504.64
2019-04-26T16:49:46.660Z,96510.18
2019-04-26T16:52:23.918Z,96514.74
2019-04-26T16:55:02.276Z,96517.09
2019-04-26T16:57:24.295Z,96522.58
2019-04-26T16:59:57.450Z,96525.28
2019-04-26T17:02:29.377Z,96523.52
2019-04-26T17:05:04.627Z,96517.87
2019-04-26T17:07:29.358Z,96517.84
2019-04-26T17:10:00.849Z,96517.31
2019-04-26T17:12:30.332Z,96517.75
2019-04-26T17:15:00.678Z,95269.91
2019-04-26T17:17:33.151Z,96516.41
2019-04-26T17:20:06.590Z,96515.27
2019-04-26T17:22:59.250Z,96522.52
2019-04-26T17:25:48.025Z,96521.42
2019-04-26T17:28:17.977Z,96528.52
2019-04-26T17:30:47.861Z,96521.55
2019-04-26T17:33:16.896Z,96521.80
2019-04-26T17:35:45.979Z,96525.34
2019-04-26T17:38:16.929Z,96531.19
2019-04-26T17:40:47.339Z,96530.84
2019-04-26T17:43:16.470Z,96528.48
2019-04-26T17:45:51.623Z,96529.89
2019-04-26T17:48:21.958Z,96536.84
2019-04-26T17:50:51.016Z,96533.66
2019-04-26T17:53:30.800Z,96536.31
2019-04-26T17:55:54.580Z,96532.86
2019-04-26T17:58:27.471Z,96531.88
2019-04-26T18:00:56.467Z,96249.27
2019-04-26T18:03:23.772Z,96523.53
2019-04-26T18:05:57.386Z,96524.81
2019-04-26T18:08:40.956Z,96529.61
2019-04-26T18:11:00.882Z,96530.03
2019-04-26T18:13:32.349Z,96529.93
2019-04-26T18:16:01.453Z,96532.36
2019-04-26T18:19:02.466Z,96536.49
2019-04-26T18:21:45.351Z,96527.11
2019-04-26T18:24:16.092Z,96527.84
2019-04-26T18:26:46.645Z,96515.64
2019-04-26T18:29:18.814Z,96521.50
2019-04-26T18:31:53.503Z,96527.80
2019-04-26T18:34:23.193Z,96520.48
2019-04-26T18:36:57.463Z,96521.80
2019-04-26T18:39:29.724Z,96529.56
2019-04-26T18:42:05.853Z,96535.59
2019-04-26T18:44:38.499Z,96535.83
2019-04-26T18:47:26.253Z,96539.96
2019-04-26T18:49:58.215Z,96538.19
2019-04-26T18:52:26.312Z,96549.07
2019-04-26T18:55:00.177Z,96542.98
2019-04-26T18:57:29.285Z,96540.67
2019-04-26T19:00:28.911Z,96541.61
2019-04-26T19:02:59.875Z,96544.86
2019-04-26T19:05:30.510Z,96541.39
2019-04-26T19:07:58.800Z,96540.87
2019-04-26T19:10:29.350Z,96544.34
2019-04-26T19:13:08.148Z,96544.97
2019-04-26T19:16:01.126Z,96551.91
2019-04-26T19:18:51.920Z,96554.92
2019-04-26T19:21:32.278Z,96560.78
2019-04-26T19:24:07.314Z,96558.69
2019-04-26T19:26:37.676Z,96564.23
2019-04-26T19:29:18.098Z,96561.58
2019-04-26T19:31:42.854Z,96564.22
2019-04-26T19:34:18.207Z,96559.45
2019-04-26T19:36:52.454Z,96555.72
2019-04-26T19:39:31.655Z,96557.59
2019-04-26T19:41:57.643Z,96556.19
2019-04-26T19:44:26.870Z,96550.65
2019-04-26T19:47:18.215Z,96555.21
2019-04-26T19:50:09.557Z,96545.65
2019-04-26T19:53:05.143Z,96555.44
2019-04-26T19:55:41.871Z,96554.36
2019-04-26T19:58:20.145Z,96553.00
2019-04-26T20:00:48.246Z,96559.13
2019-04-26T20:03:20.789Z,96561.52
2019-04-26T20:05:49.908Z,96554.78
2019-04-26T20:08:21.536Z,96554.66
2019-04-26T20:10:52.350Z,96558.98
2019-04-26T20:13:22.019Z,96552.19
2019-04-26T20:16:04.714Z,96557.72
2019-04-26T20:18:28.468Z,96560.96
2019-04-26T20:20:57.703Z,96559.06
2019-04-26T20:23:26.751Z,96558.20
2019-04-26T20:25:55.853Z,96562.28
2019-04-26T20:28:25.074Z,96561.41
2019-04-26T20:31:17.265Z,96567.51
2019-04-26T20:33:53.988Z,96559.88
2019-04-26T20:36:23.043Z,96568.45
2019-04-26T20:38:53.530Z,96560.73
2019-04-26T20:41:22.578Z,96561.41
2019-04-26T20:44:06.887Z,96559.86
2019-04-26T20:46:34.496Z,96560.62
2019-04-26T20:49:07.972Z,96562.28
2019-04-26T20:51:46.082Z,96559.80
2019-04-26T20:54:16.154Z,96561.36
2019-04-26T20:56:42.168Z,96568.53
2019-04-26T20:59:11.907Z,96561.11
2019-04-26T21:01:46.703Z,96565.14
2019-04-26T21:04:34.160Z,96565.08
2019-04-26T21:06:47.703Z,96570.02
2019-04-26T21:09:18.403Z,96563.73
2019-04-26T21:11:47.591Z,96564.95
2019-04-26T21:14:25.749Z,96569.86
2019-04-26T21:16:58.935Z,96567.83
2019-04-26T21:19:28.005Z,96573.64
2019-04-26T21:21:57.162Z,96579.59
2019-04-26T21:24:28.083Z,96573.12
2019-04-26T21:27:10.343Z,96578.30
2019-04-26T21:30:00.865Z,96580.00
2019-04-26T21:32:59.655Z,96581.37
2019-04-26T21:35:39.475Z,96583.09
2019-04-26T21:38:20.040Z,96588.49
2019-04-26T21:41:01.439Z,96586.82
2019-04-26T21:43:29.593Z,96584.52
2019-04-26T21:46:07.749Z,96579.95
2019-04-26T21:48:30.766Z,96583.77
2019-04-26T21:50:59.859Z,96586.80
2019-04-26T21:53:29.867Z,96594.35
2019-04-26T21:55:58.962Z,96596.41
2019-04-26T21:58:28.037Z,96600.02
2019-04-26T22:01:15.588Z,96608.53
2019-04-26T22:03:53.632Z,96601.56
2019-04-26T22:06:19.880Z,96593.52
2019-04-26T22:09:06.008Z,96603.16
2019-04-26T22:11:44.505Z,96602.46
2019-04-26T22:14:23.594Z,96597.94
2019-04-26T22:17:13.602Z,96594.48
2019-04-26T22:19:55.502Z,96598.77
2019-04-26T22:22:37.534Z,96598.33
2019-04-26T22:25:05.585Z,96594.88
2019-04-26T22:27:37.696Z,96600.06
2019-04-26T22:30:13.308Z,96604.80
2019-04-26T22:32:42.569Z,96609.16
2019-04-26T22:35:21.386Z,96605.66
2019-04-26T22:37:55.856Z,96479.82
2019-04-26T22:40:25.079Z,96614.19
2019-04-26T22:43:02.858Z,96612.30
2019-04-26T22:45:54.459Z,96606.61
2019-04-26T22:48:38.139Z,95149.33
2019-04-26T22:51:10.855Z,96609.35
2019-04-26T22:53:43.387Z,96608.59
2019-04-26T22:56:14.535Z,96605.12
2019-04-26T22:58:44.115Z,96606.58
2019-04-26T23:01:13.552Z,96609.25
2019-04-26T23:03:46.413Z,96605.87
2019-04-26T23:06:15.406Z,96609.55
2019-04-26T23:08:46.617Z,96610.67
2019-04-26T23:11:20.198Z,96604.86
2019-04-26T23:13:57.395Z,96599.91
2019-04-26T23:17:01.663Z,96601.66
2019-04-26T23:19:57.503Z,96601.41
2019-04-26T23:22:30.928Z,96600.72
2019-04-26T23:24:58.270Z,96598.84
2019-04-26T23:27:27.305Z,96601.41
2019-04-26T23:29:58.524Z,96601.78
2019-04-26T23:32:27.234Z,96598.49
2019-04-26T23:34:58.293Z,96601.73
2019-04-26T23:37:30.536Z,96619.89
2019-04-26T23:39:59.568Z,96590.63
2019-04-26T23:42:28.643Z,96592.97
2019-04-26T23:44:57.685Z,96594.64
2019-04-26T23:47:26.762Z,96598.43
2019-04-26T23:49:57.039Z,96598.20
2019-04-26T23:52:27.795Z,96597.70
2019-04-26T23:54:57.362Z,96595.64
2019-04-26T23:57:27.498Z,96593.49
